createdAt,value
2018-02-22T00:01:30.952Z,45.53
2018-02-22T00:03:59.271Z,39.05
2018-02-22T00:06:27.649Z,53.75
2018-02-22T00:08:56.540Z,48.63
2018-02-22T00:11:24.859Z,57.53
2018-02-22T00:13:53.248Z,48.05
2018-02-22T00:16:21.997Z,45.72
2018-02-22T00:18:50.351Z,59.40
2018-02-22T00:21:19.484Z,56.58
2018-02-22T00:23:47.569Z,45.95
2018-02-22T00:26:15.883Z,50.33
2018-02-22T00:28:44.237Z,49.50
2018-02-22T00:31:12.560Z,48.05
2018-02-22T00:33:41.640Z,42.50
2018-02-22T00:36:10.254Z,48.00
2018-02-22T00:38:38.567Z,51.88
2018-02-22T00:41:06.891Z,42.85
2018-02-22T00:43:36.029Z,48.95
2018-02-22T00:46:04.353Z,48.30
2018-02-22T00:48:33.437Z,49.00
2018-02-22T00:51:01.813Z,54.33
2018-02-22T00:53:30.137Z,39.97
2018-02-22T00:55:58.836Z,56.25
2018-02-22T00:58:27.213Z,53.33
2018-02-22T01:00:55.532Z,49.10
2018-02-22T01:03:23.847Z,45.88
2018-02-22T01:05:52.988Z,47.70
2018-02-22T01:08:21.303Z,52.83
2018-02-22T01:10:49.631Z,46.33
2018-02-22T01:13:18.113Z,53.72
2018-02-22T01:15:46.197Z,43.05
2018-02-22T01:18:14.521Z,50.28
2018-02-22T01:20:43.657Z,46.83
2018-02-22T01:23:11.990Z,49.10
2018-02-22T01:25:40.696Z,41.17
2018-02-22T01:28:09.064Z,37.30
2018-02-22T01:30:38.142Z,42.97
2018-02-22T01:33:07.227Z,46.67
2018-02-22T01:35:35.600Z,47.78
2018-02-22T01:38:03.917Z,32.80
2018-02-22T01:40:32.242Z,45.40
2018-02-22T01:43:00.632Z,39.53
2018-02-22T01:45:28.952Z,53.40
2018-02-22T01:47:57.302Z,47.22
2018-02-22T01:50:26.459Z,38.38
2018-02-22T01:52:54.784Z,45.10
2018-02-22T01:55:23.109Z,44.38
2018-02-22T01:57:51.537Z,38.80
2018-02-22T02:00:19.851Z,40.78
2018-02-22T02:02:48.168Z,51.95
2018-02-22T02:05:17.637Z,35.20
2018-02-22T02:07:46.328Z,36.72
2018-02-22T02:10:15.186Z,37.33
2018-02-22T02:12:43.559Z,41.33
2018-02-22T02:15:11.937Z,42.65
2018-02-22T02:17:40.031Z,39.80
2018-02-22T02:20:08.404Z,42.45
2018-02-22T02:22:37.064Z,39.92
2018-02-22T02:25:05.389Z,24.35
2018-02-22T02:27:33.756Z,35.88
2018-02-22T02:30:02.086Z,39.17
2018-02-22T02:32:30.407Z,47.88
2018-02-22T02:34:58.867Z,36.92
2018-02-22T02:37:27.237Z,45.92
2018-02-22T02:39:55.561Z,42.28
2018-02-22T02:42:24.073Z,40.53
2018-02-22T02:44:52.391Z,44.45
2018-02-22T02:47:21.138Z,46.08
2018-02-22T02:49:49.493Z,42.70
2018-02-22T02:52:17.814Z,44.72
2018-02-22T02:54:46.902Z,40.67
2018-02-22T02:57:15.279Z,46.72
2018-02-22T02:59:43.605Z,38.05
2018-02-22T03:02:11.932Z,41.97
2018-02-22T03:04:40.633Z,47.00
2018-02-22T03:07:09.523Z,36.28
2018-02-22T03:09:37.865Z,38.28
2018-02-22T03:12:06.235Z,43.28
2018-02-22T03:14:34.918Z,42.03
2018-02-22T03:17:04.045Z,37.42
2018-02-22T03:19:33.037Z,46.13
2018-02-22T03:22:01.360Z,35.05
2018-02-22T03:24:29.772Z,39.22
2018-02-22T03:26:58.161Z,34.75
2018-02-22T03:29:26.478Z,34.35
2018-02-22T03:31:55.589Z,40.83
2018-02-22T03:34:23.959Z,27.52
2018-02-22T03:36:52.404Z,35.08
2018-02-22T03:39:20.723Z,40.75
2018-02-22T03:41:49.219Z,45.88
2018-02-22T03:44:17.752Z,40.12
2018-02-22T03:46:46.069Z,37.70
2018-02-22T03:49:15.147Z,42.00
2018-02-22T03:51:44.247Z,43.85
2018-02-22T03:54:12.564Z,33.78
2018-02-22T03:56:41.231Z,33.30
2018-02-22T03:59:10.592Z,42.13
2018-02-22T04:01:38.959Z,35.42
2018-02-22T04:04:07.316Z,26.87
2018-02-22T04:06:35.682Z,39.70
2018-02-22T04:09:04.005Z,38.67
2018-02-22T04:11:32.351Z,36.00
2018-02-22T04:14:00.663Z,47.70
2018-02-22T04:16:28.985Z,19.52
2018-02-22T04:18:57.437Z,26.92
2018-02-22T04:21:25.756Z,21.08
2018-02-22T04:23:54.069Z,31.77
2018-02-22T04:26:22.436Z,33.47
2018-02-22T04:28:50.954Z,48.22
2018-02-22T04:31:19.303Z,28.58
2018-02-22T04:33:48.097Z,36.58
2018-02-22T04:36:16.462Z,19.30
2018-02-22T04:38:45.245Z,42.78
2018-02-22T04:41:13.612Z,35.78
2018-02-22T04:43:41.959Z,30.92
2018-02-22T04:46:10.743Z,21.50
2018-02-22T04:48:39.113Z,23.65
2018-02-22T04:51:08.291Z,23.92
2018-02-22T04:53:36.640Z,36.80
2018-02-22T04:56:04.981Z,33.65
2018-02-22T04:58:33.351Z,35.70
2018-02-22T05:01:01.681Z,39.63
2018-02-22T05:03:30.004Z,47.42
2018-02-22T05:05:58.520Z,36.78
2018-02-22T05:08:26.841Z,35.22
2018-02-22T05:10:55.174Z,43.05
2018-02-22T05:16:06.014Z,45.97
2018-02-22T05:18:34.372Z,46.65
2018-02-22T05:21:03.036Z,38.83
2018-02-22T05:23:31.364Z,40.65
2018-02-22T05:26:00.507Z,36.53
2018-02-22T05:28:29.473Z,37.60
2018-02-22T05:30:57.798Z,40.22
2018-02-22T05:33:26.605Z,40.08
2018-02-22T05:35:54.932Z,39.40
2018-02-22T05:38:23.255Z,24.63
2018-02-22T05:40:51.878Z,39.83
2018-02-22T05:43:20.685Z,39.00
2018-02-22T05:45:49.005Z,38.28
2018-02-22T05:48:17.376Z,33.63
2018-02-22T05:50:46.719Z,56.00
2018-02-22T05:53:15.992Z,42.80
2018-02-22T05:55:44.336Z,42.05
2018-02-22T05:58:13.176Z,55.28
2018-02-22T06:00:41.978Z,36.60
2018-02-22T06:03:10.604Z,50.20
2018-02-22T06:05:39.124Z,40.50
2018-02-22T06:08:07.448Z,50.63
2018-02-22T06:10:36.532Z,47.72
2018-02-22T06:13:04.930Z,40.33
2018-02-22T06:15:33.700Z,40.08
2018-02-22T06:18:02.116Z,38.03
2018-02-22T06:20:30.338Z,31.83
2018-02-22T06:22:58.808Z,35.20
2018-02-22T06:25:27.676Z,38.97
2018-02-22T06:27:56.032Z,41.42
2018-02-22T06:30:24.385Z,33.03
2018-02-22T06:32:52.825Z,42.53
2018-02-22T06:35:21.159Z,40.12
2018-02-22T06:37:49.480Z,45.00
2018-02-22T06:40:18.625Z,42.67
2018-02-22T06:42:47.041Z,45.03
2018-02-22T06:45:16.267Z,49.50
2018-02-22T06:47:45.560Z,42.55
2018-02-22T06:50:14.234Z,41.60
2018-02-22T06:52:42.622Z,45.22
2018-02-22T06:55:11.205Z,38.38
2018-02-22T06:57:39.707Z,44.60
2018-02-22T07:00:08.032Z,32.47
2018-02-22T07:02:36.416Z,39.35
2018-02-22T07:05:04.740Z,44.03
2018-02-22T07:07:33.080Z,32.65
2018-02-22T07:10:01.464Z,40.08
2018-02-22T07:12:29.988Z,45.35
2018-02-22T07:14:59.062Z,41.35
2018-02-22T07:17:28.275Z,34.42
2018-02-22T07:19:57.127Z,42.75
2018-02-22T07:22:26.169Z,43.42
2018-02-22T07:24:53.833Z,41.20
2018-02-22T07:27:22.233Z,32.25
2018-02-22T07:29:50.576Z,34.50
2018-02-22T07:32:18.203Z,35.10
2018-02-22T07:34:45.988Z,39.50
2018-02-22T07:37:14.469Z,32.75
2018-02-22T07:39:43.560Z,26.27
2018-02-22T07:42:12.120Z,22.48
2018-02-22T07:44:40.475Z,39.22
2018-02-22T07:47:08.796Z,44.05
2018-02-22T07:49:37.160Z,23.23
2018-02-22T07:52:05.524Z,26.90
2018-02-22T07:54:33.860Z,45.05
2018-02-22T07:57:02.236Z,43.60
2018-02-22T07:59:30.557Z,46.23
2018-02-22T08:01:58.876Z,31.83
2018-02-22T08:04:28.219Z,35.80
2018-02-22T08:06:56.646Z,46.27
2018-02-22T08:09:25.736Z,35.15
2018-02-22T08:11:54.116Z,40.40
2018-02-22T08:14:22.463Z,40.63
2018-02-22T08:16:50.800Z,44.65
2018-02-22T08:19:19.176Z,35.78
2018-02-22T08:21:47.505Z,41.25
2018-02-22T08:24:16.117Z,40.67
2018-02-22T08:26:45.989Z,53.05
2018-02-22T08:29:14.307Z,35.13
2018-02-22T08:31:42.633Z,46.30
2018-02-22T08:34:11.024Z,33.88
2018-02-22T08:36:39.348Z,46.37
2018-02-22T08:39:07.749Z,37.22
2018-02-22T08:41:36.116Z,36.72
2018-02-22T08:44:04.446Z,37.78
2018-02-22T08:46:32.776Z,45.53
2018-02-22T08:49:01.913Z,33.97
2018-02-22T08:51:30.245Z,44.28
2018-02-22T08:53:58.572Z,25.70
2018-02-22T08:56:26.972Z,42.47
2018-02-22T08:58:55.296Z,38.92
2018-02-22T09:01:23.632Z,30.35
2018-02-22T09:03:52.018Z,34.53
2018-02-22T09:06:21.857Z,38.83
2018-02-22T09:08:50.945Z,28.95
2018-02-22T09:11:20.085Z,30.95
2018-02-22T09:13:48.916Z,37.45
2018-02-22T09:16:17.803Z,40.67
2018-02-22T09:18:46.069Z,32.38
2018-02-22T09:21:14.391Z,35.90
2018-02-22T09:23:42.776Z,35.92
2018-02-22T09:26:11.140Z,27.62
2018-02-22T09:28:40.216Z,19.13
2018-02-22T09:31:09.305Z,24.30
2018-02-22T09:33:37.745Z,25.07
2018-02-22T09:36:06.053Z,36.70
2018-02-22T09:38:34.367Z,29.80
2018-02-22T09:41:03.515Z,36.73
2018-02-22T09:43:31.828Z,32.13
2018-02-22T09:46:00.140Z,28.60
2018-02-22T09:48:28.948Z,40.47
2018-02-22T09:50:57.260Z,30.47
2018-02-22T09:53:25.564Z,29.53
2018-02-22T09:55:53.928Z,20.83
2018-02-22T09:58:23.004Z,35.57
2018-02-22T10:00:51.340Z,27.23
2018-02-22T10:03:19.773Z,19.67
2018-02-22T10:05:48.866Z,17.40
2018-02-22T10:08:17.180Z,31.27
2018-02-22T10:10:46.010Z,28.77
2018-02-22T10:13:14.316Z,28.30
2018-02-22T10:15:43.437Z,27.97
2018-02-22T10:18:11.765Z,36.37
2018-02-22T10:20:40.084Z,26.63
2018-02-22T10:23:08.622Z,35.27
2018-02-22T10:25:36.927Z,29.27
2018-02-22T10:28:05.272Z,31.37
2018-02-22T10:30:33.648Z,25.37
2018-02-22T10:33:01.960Z,25.00
2018-02-22T10:35:30.270Z,27.43
2018-02-22T10:37:58.624Z,30.00
2018-02-22T10:40:26.940Z,32.50
2018-02-22T10:42:55.248Z,27.53
2018-02-22T10:45:23.600Z,31.00
2018-02-22T10:47:51.913Z,28.83
2018-02-22T10:50:20.228Z,21.77
2018-02-22T10:52:49.529Z,21.00
2018-02-22T10:55:17.884Z,29.20
2018-02-22T10:57:46.328Z,22.87
2018-02-22T11:00:14.696Z,24.67
2018-02-22T11:02:49.108Z,35.23
2018-02-22T11:05:17.500Z,20.03
2018-02-22T11:07:45.846Z,21.40
2018-02-22T11:10:15.196Z,33.00
2018-02-22T11:12:43.551Z,16.13
2018-02-22T11:15:12.044Z,28.40
2018-02-22T11:17:40.398Z,25.73
2018-02-22T11:20:08.725Z,26.87
2018-02-22T11:22:37.120Z,37.77
2018-02-22T11:25:06.211Z,24.37
2018-02-22T11:27:34.803Z,35.47
2018-02-22T11:30:03.160Z,20.80
2018-02-22T11:32:31.472Z,21.67
2018-02-22T11:34:59.867Z,28.30
2018-02-22T11:37:28.303Z,28.67
2018-02-22T11:39:56.665Z,18.60
2018-02-22T11:42:24.980Z,30.07
2018-02-22T11:44:54.156Z,26.20
2018-02-22T11:47:22.472Z,23.00
2018-02-22T11:49:50.792Z,30.37
2018-02-22T11:52:19.145Z,24.60
2018-02-22T11:54:47.721Z,30.77
2018-02-22T11:57:16.364Z,25.70
2018-02-22T11:59:44.736Z,24.50
2018-02-22T12:02:13.044Z,29.27
2018-02-22T12:04:41.353Z,19.37
2018-02-22T12:07:09.713Z,28.90
2018-02-22T12:09:38.029Z,25.00
2018-02-22T12:12:06.332Z,31.70
2018-02-22T12:14:34.679Z,27.53
2018-02-22T12:17:02.984Z,21.37
2018-02-22T12:19:31.324Z,19.77
2018-02-22T12:21:59.685Z,21.83
2018-02-22T12:24:27.992Z,23.43
2018-02-22T12:26:56.303Z,23.30
2018-02-22T12:29:25.233Z,22.80
2018-02-22T12:31:53.540Z,27.80
2018-02-22T12:34:21.856Z,22.80
2018-02-22T12:36:50.735Z,24.17
2018-02-22T12:39:19.821Z,29.93
2018-02-22T12:41:48.128Z,32.60
2018-02-22T12:44:17.252Z,19.23
2018-02-22T12:46:46.144Z,23.33
2018-02-22T12:49:14.989Z,24.10
2018-02-22T12:51:43.653Z,17.13
2018-02-22T12:54:12.812Z,22.93
2018-02-22T12:56:42.236Z,21.80
2018-02-22T12:59:11.353Z,17.33
2018-02-22T13:01:39.660Z,24.17
2018-02-22T13:04:08.992Z,20.13
2018-02-22T13:06:37.303Z,23.07
2018-02-22T13:09:05.857Z,22.87
2018-02-22T13:11:34.226Z,27.33
2018-02-22T13:14:02.532Z,19.20
2018-02-22T13:16:30.890Z,22.30
2018-02-22T13:18:59.444Z,21.00
2018-02-22T13:21:28.357Z,21.50
2018-02-22T13:23:56.980Z,27.40
2018-02-22T13:26:25.284Z,23.17
2018-02-22T13:28:54.406Z,20.47
2018-02-22T13:31:22.752Z,25.97
2018-02-22T13:34:08.555Z,25.70
2018-02-22T13:36:37.632Z,27.23
2018-02-22T13:39:08.665Z,21.93
2018-02-22T13:41:36.986Z,22.00
2018-02-22T13:44:23.061Z,25.60
2018-02-22T13:46:51.371Z,25.73
2018-02-22T13:49:37.795Z,20.63
2018-02-22T13:52:06.285Z,24.90
2018-02-22T13:54:34.633Z,24.03
2018-02-22T13:57:15.760Z,19.60
2018-02-22T13:59:44.860Z,18.50
2018-02-22T14:02:26.076Z,27.77
2018-02-22T14:04:54.440Z,17.40
2018-02-22T14:07:22.761Z,19.60
2018-02-22T14:09:51.251Z,23.30
2018-02-22T14:12:20.117Z,20.70
2018-02-22T14:14:48.428Z,16.27
2018-02-22T14:17:16.785Z,25.33
2018-02-22T14:19:45.160Z,22.93
2018-02-22T14:22:13.884Z,22.73
2018-02-22T14:24:42.261Z,24.87
2018-02-22T14:27:11.252Z,27.27
2018-02-22T14:29:40.020Z,19.53
2018-02-22T14:32:08.375Z,18.93
2018-02-22T14:34:36.737Z,23.10
2018-02-22T14:37:05.067Z,32.77
2018-02-22T14:39:33.417Z,21.77
2018-02-22T14:42:01.766Z,17.93
2018-02-22T14:44:30.320Z,25.10
2018-02-22T14:46:59.423Z,19.63
2018-02-22T14:49:28.904Z,24.47
2018-02-22T14:51:57.211Z,21.57
2018-02-22T14:54:26.299Z,18.30
2018-02-22T14:56:55.421Z,22.53
2018-02-22T14:59:23.803Z,21.70
2018-02-22T15:01:52.108Z,18.03
2018-02-22T15:04:20.464Z,18.20
2018-02-22T15:06:49.632Z,24.37
2018-02-22T15:09:17.936Z,23.20
2018-02-22T15:11:46.668Z,26.23
2018-02-22T15:14:15.360Z,33.30
2018-02-22T15:16:43.692Z,27.77
2018-02-22T15:19:12.588Z,16.67
2018-02-22T15:21:42.372Z,20.90
2018-02-22T15:24:10.824Z,18.47
2018-02-22T15:26:39.185Z,31.73
2018-02-22T15:29:07.573Z,24.77
2018-02-22T15:31:35.913Z,18.27
2018-02-22T15:34:04.651Z,24.50
2018-02-22T15:36:32.961Z,21.77
2018-02-22T15:39:01.296Z,22.00
2018-02-22T15:41:29.608Z,24.83
2018-02-22T15:43:57.940Z,22.20
2018-02-22T15:46:26.296Z,22.67
2018-02-22T15:48:54.596Z,19.63
2018-02-22T15:51:22.899Z,20.63
2018-02-22T15:53:51.260Z,21.73
2018-02-22T15:56:19.572Z,15.87
2018-02-22T15:58:48.643Z,22.87
2018-02-22T16:01:17.289Z,20.50
2018-02-22T16:03:45.612Z,22.60
2018-02-22T16:06:13.920Z,23.20
2018-02-22T16:08:42.287Z,21.13
2018-02-22T16:11:10.597Z,22.80
2018-02-22T16:13:38.904Z,15.93
2018-02-22T16:16:07.743Z,20.90
2018-02-22T16:18:36.057Z,14.27
2018-02-22T16:21:04.396Z,19.00
2018-02-22T16:23:32.943Z,20.73
2018-02-22T16:26:02.021Z,19.63
2018-02-22T16:28:30.388Z,20.50
2018-02-22T16:30:59.481Z,14.07
2018-02-22T16:33:28.828Z,18.67
2018-02-22T16:35:57.900Z,18.70
2018-02-22T16:38:26.500Z,19.60
2018-02-22T16:40:54.868Z,20.73
2018-02-22T16:43:23.228Z,19.67
2018-02-22T16:45:51.663Z,23.37
2018-02-22T16:48:19.972Z,23.70
2018-02-22T16:50:48.658Z,21.20
2018-02-22T16:53:17.437Z,19.00
2018-02-22T16:55:46.525Z,21.20
2018-02-22T16:58:15.701Z,23.40
2018-02-22T17:00:44.438Z,18.37
2018-02-22T17:03:12.720Z,16.67
2018-02-22T17:05:41.432Z,28.07
2018-02-22T17:08:09.787Z,15.17
2018-02-22T17:10:38.323Z,28.60
2018-02-22T17:13:08.049Z,21.20
2018-02-22T17:15:39.457Z,25.10
2018-02-22T17:18:07.876Z,22.57
2018-02-22T17:20:38.106Z,20.93
2018-02-22T17:23:06.447Z,17.07
2018-02-22T17:25:35.835Z,17.10
2018-02-22T17:28:09.676Z,24.47
2018-02-22T17:30:43.457Z,24.43
2018-02-22T17:33:12.151Z,19.05
2018-02-22T17:35:59.261Z,21.63
2018-02-22T17:38:33.204Z,18.42
2018-02-22T17:41:01.577Z,18.70
2018-02-22T17:43:30.309Z,20.65
2018-02-22T17:45:58.620Z,20.43
2018-02-22T17:48:27.828Z,28.17
2018-02-22T17:50:56.176Z,29.57
2018-02-22T17:53:24.556Z,21.60
2018-02-22T17:55:52.919Z,17.20
2018-02-22T17:58:21.238Z,22.30
2018-02-22T18:00:49.548Z,23.17
2018-02-22T18:03:18.480Z,17.05
2018-02-22T18:05:46.788Z,17.77
2018-02-22T18:08:15.120Z,22.50
2018-02-22T18:10:43.648Z,19.07
2018-02-22T18:13:13.629Z,22.73
2018-02-22T18:15:43.818Z,22.43
2018-02-22T18:18:14.840Z,17.70
2018-02-22T18:20:43.186Z,22.40
2018-02-22T18:23:12.175Z,19.17
2018-02-22T18:25:41.329Z,21.47
2018-02-22T18:28:09.660Z,15.10
2018-02-22T18:30:37.974Z,22.23
2018-02-22T18:33:06.328Z,14.20
2018-02-22T18:35:34.651Z,18.52
2018-02-22T18:38:02.961Z,17.17
2018-02-22T18:40:38.234Z,20.20
2018-02-22T18:43:11.951Z,20.73
2018-02-22T18:45:40.284Z,19.00
2018-02-22T18:48:08.656Z,17.07
2018-02-22T18:50:37.288Z,15.75
2018-02-22T18:53:05.664Z,16.97
2018-02-22T18:55:34.736Z,18.70
2018-02-22T18:58:03.820Z,16.05
2018-02-22T19:00:32.949Z,17.67
2018-02-22T19:03:01.294Z,22.48
2018-02-22T19:05:29.698Z,20.33
2018-02-22T19:07:58.785Z,17.23
2018-02-22T19:10:34.739Z,17.07
2018-02-22T19:13:03.112Z,16.63
2018-02-22T19:15:31.448Z,17.87
2018-02-22T19:17:59.831Z,15.57
2018-02-22T19:20:28.208Z,23.30
2018-02-22T19:22:56.572Z,16.33
2018-02-22T19:25:24.881Z,13.33
2018-02-22T19:27:53.330Z,14.37
2018-02-22T19:30:21.648Z,18.17
2018-02-22T19:32:50.672Z,17.13
2018-02-22T19:35:19.026Z,20.07
2018-02-22T19:37:47.347Z,15.75
2018-02-22T19:40:15.761Z,12.70
2018-02-22T19:42:44.088Z,17.77
2018-02-22T19:45:12.400Z,24.00
2018-02-22T19:47:40.706Z,17.43
2018-02-22T19:50:09.042Z,20.00
2018-02-22T19:52:37.352Z,13.33
2018-02-22T19:55:05.703Z,14.53
2018-02-22T19:57:34.012Z,17.57
2018-02-22T20:00:03.843Z,9.70
2018-02-22T20:02:34.040Z,21.33
2018-02-22T20:05:02.356Z,23.30
2018-02-22T20:07:30.706Z,19.00
2018-02-22T20:09:59.685Z,13.62
2018-02-22T20:12:28.385Z,18.33
2018-02-22T20:14:56.757Z,17.87
2018-02-22T20:17:25.086Z,19.73
2018-02-22T20:19:53.402Z,15.73
2018-02-22T20:22:21.740Z,15.63
2018-02-22T20:24:50.048Z,14.23
2018-02-22T20:27:18.383Z,13.50
2018-02-22T20:29:47.021Z,16.13
2018-02-22T20:32:15.371Z,15.25
2018-02-22T20:34:44.424Z,12.33
2018-02-22T20:37:13.500Z,17.67
2018-02-22T20:39:41.880Z,16.15
2018-02-22T20:42:10.868Z,17.50
2018-02-22T20:44:39.183Z,15.75
2018-02-22T20:47:07.524Z,13.70
2018-02-22T20:49:35.844Z,16.30
2018-02-22T20:52:04.540Z,20.35
2018-02-22T20:54:32.881Z,12.30
2018-02-22T20:57:02.176Z,15.27
2018-02-22T20:59:30.848Z,13.27
2018-02-22T21:01:59.182Z,22.27
2018-02-22T21:04:27.502Z,21.08
2018-02-22T21:06:56.328Z,14.57
2018-02-22T21:09:26.671Z,16.17
2018-02-22T21:11:55.040Z,13.65
2018-02-22T21:14:24.016Z,20.83
2018-02-22T21:16:52.363Z,12.48
2018-02-22T21:19:20.883Z,21.92
2018-02-22T21:21:49.906Z,18.67
2018-02-22T21:24:18.829Z,26.48
2018-02-22T21:26:47.264Z,19.27
2018-02-22T21:29:15.587Z,19.98
2018-02-22T21:31:44.681Z,28.03
2018-02-22T21:34:14.176Z,20.85
2018-02-22T21:36:42.502Z,19.95
2018-02-22T21:39:11.148Z,17.55
2018-02-22T21:41:42.135Z,20.35
2018-02-22T21:44:11.284Z,19.00
2018-02-22T21:46:39.975Z,16.05
2018-02-22T21:49:08.421Z,19.33
2018-02-22T21:51:37.176Z,8.87
2018-02-22T21:54:05.508Z,22.58
2018-02-22T21:56:33.872Z,14.70
2018-02-22T21:59:02.448Z,18.87
2018-02-22T22:01:31.619Z,18.35
2018-02-22T22:04:00.496Z,15.52
2018-02-22T22:06:29.174Z,13.07
2018-02-22T22:08:58.633Z,17.15
2018-02-22T22:11:26.988Z,19.50
2018-02-22T22:13:55.305Z,18.50
2018-02-22T22:16:23.687Z,19.73
2018-02-22T22:18:52.004Z,17.10
2018-02-22T22:21:20.332Z,19.12
2018-02-22T22:23:49.303Z,16.73
2018-02-22T22:26:17.623Z,20.85
2018-02-22T22:28:45.947Z,19.52
2018-02-22T22:31:14.312Z,14.93
2018-02-22T22:33:43.396Z,17.02
2018-02-22T22:36:12.483Z,13.52
2018-02-22T22:38:40.852Z,14.55
2018-02-22T22:41:09.767Z,17.50
2018-02-22T22:43:38.092Z,17.33
2018-02-22T22:46:06.456Z,12.05
2018-02-22T22:48:34.772Z,14.18
2018-02-22T22:51:03.096Z,13.75
2018-02-22T22:53:31.447Z,24.75
2018-02-22T22:55:59.768Z,15.67
2018-02-22T22:58:28.107Z,14.25
2018-02-22T23:00:56.461Z,17.05
2018-02-22T23:03:24.810Z,16.40
2018-02-22T23:05:53.140Z,20.08
2018-02-22T23:08:21.460Z,14.55
2018-02-22T23:10:49.860Z,17.00
2018-02-22T23:13:18.180Z,14.32
2018-02-22T23:15:46.560Z,22.10
2018-02-22T23:18:15.644Z,17.40
2018-02-22T23:20:44.733Z,22.95
2018-02-22T23:23:13.084Z,15.65
2018-02-22T23:25:46.853Z,19.27
2018-02-22T23:28:15.235Z,13.93
2018-02-22T23:30:44.147Z,14.70
2018-02-22T23:33:12.459Z,18.10
2018-02-22T23:35:40.836Z,15.70
2018-02-22T23:38:09.152Z,14.07
2018-02-22T23:40:42.936Z,16.92
2018-02-22T23:43:11.261Z,22.08
2018-02-22T23:45:39.632Z,18.40
2018-02-22T23:48:07.960Z,15.98
2018-02-22T23:50:37.780Z,15.53
2018-02-22T23:53:06.231Z,18.58
2018-02-22T23:55:34.547Z,15.38
2018-02-22T23:58:03.646Z,20.90
